Time;durP1;ratioP1;P1;durP2;ratioP2;P2;SDS_P1;SDS_P2;PMS_P1;PMS_P2;Temp;Humidity;BMP_temperature;BMP_pressure;BME280_temperature;BME280_humidity;BME280_pressure;Samples;Min_cycle;Max_cycle;Signal;HPM_P1;HPM_P2
2021/09/27 00:01:25;;;;;;;19.08;12.23;;;15.40;88.60;;;;;;5074671;28;20381;-72
2021/09/27 00:03:51;;;;;;;14.52;11.82;;;15.40;88.40;;;;;;5075896;28;20013;-72
2021/09/27 00:06:17;;;;;;;14.23;11.98;;;15.40;88.40;;;;;;5075952;28;20090;-72
2021/09/27 00:08:43;;;;;;;15.65;12.90;;;15.40;88.30;;;;;;5075886;28;20048;-71
2021/09/27 00:11:22;;;;;;;17.10;12.15;;;15.30;88.50;;;;;;5075819;28;20020;-71
2021/09/27 00:13:51;;;;;;;15.93;11.38;;;15.30;88.60;;;;;;5075586;28;20442;-71
2021/09/27 00:16:17;;;;;;;14.75;12.32;;;15.30;88.70;;;;;;5075851;28;20016;-71
2021/09/27 00:18:43;;;;;;;12.77;11.40;;;15.40;88.50;;;;;;5075633;28;20384;-71
2021/09/27 00:21:15;;;;;;;13.50;11.95;;;15.30;88.70;;;;;;5075734;28;20086;-71
2021/09/27 00:23:41;;;;;;;14.52;11.60;;;15.40;88.50;;;;;;5074450;28;20038;-72
2021/09/27 00:26:06;;;;;;;16.77;11.68;;;15.30;88.40;;;;;;5075597;28;20025;-71
2021/09/27 00:28:33;;;;;;;14.52;11.80;;;15.30;88.40;;;;;;5075463;28;20029;-71
2021/09/27 00:30:59;;;;;;;17.80;11.68;;;15.30;88.40;;;;;;5075463;28;20496;-72
2021/09/27 00:33:25;;;;;;;15.65;12.02;;;15.30;88.30;;;;;;5075355;28;20032;-72
2021/09/27 00:35:51;;;;;;;19.75;11.90;;;15.30;88.30;;;;;;5075403;28;20481;-72
2021/09/27 00:38:18;;;;;;;17.33;11.98;;;15.30;88.40;;;;;;5075335;28;20028;-72
2021/09/27 00:40:48;;;;;;;13.77;11.45;;;15.30;88.40;;;;;;5075293;28;20020;-72
2021/09/27 00:43:15;;;;;;;17.45;12.02;;;15.30;88.50;;;;;;5075214;28;20075;-71
2021/09/27 00:45:44;;;;;;;15.73;11.93;;;15.20;89.50;;;;;;5074926;28;20035;-72
2021/09/27 00:48:11;;;;;;;15.18;11.85;;;15.20;88.90;;;;;;5075132;28;20025;-72
2021/09/27 00:50:42;;;;;;;16.48;12.45;;;15.20;89.00;;;;;;5075156;28;20025;-72
2021/09/27 00:53:20;;;;;;;15.43;11.55;;;15.10;89.10;;;;;;5073311;28;20055;-72
2021/09/27 00:55:46;;;;;;;13.85;11.77;;;15.10;89.20;;;;;;5075041;28;20028;-72
2021/09/27 00:58:15;;;;;;;13.63;11.20;;;15.10;89.10;;;;;;5074653;28;20032;-71
2021/09/27 01:00:40;;;;;;;16.67;11.40;;;15.10;89.80;;;;;;5074889;28;20040;-72
2021/09/27 01:03:06;;;;;;;15.32;12.02;;;15.10;89.10;;;;;;5074846;28;20021;-72
2021/09/27 01:05:36;;;;;;;14.15;11.18;;;15.10;89.00;;;;;;5074842;28;20055;-71
2021/09/27 01:08:21;;;;;;;16.58;11.98;;;15.10;88.90;;;;;;5074717;28;20025;-72
2021/09/27 01:11:15;;;;;;;13.43;11.93;;;15.00;88.90;;;;;;5073431;28;20021;-72
2021/09/27 01:14:01;;;;;;;15.98;11.75;;;14.90;89.20;;;;;;5074572;28;20135;-72
2021/09/27 01:16:36;;;;;;;16.60;12.70;;;14.80;89.20;;;;;;5074634;28;20021;-72
2021/09/27 01:19:39;;;;;;;14.18;11.50;;;14.70;89.60;;;;;;5073310;28;20024;-72
2021/09/27 01:22:32;;;;;;;14.02;11.57;;;14.70;89.80;;;;;;5074453;28;20519;-72
2021/09/27 01:25:06;;;;;;;13.43;11.07;;;14.70;89.80;;;;;;5074435;28;20036;-72
2021/09/27 01:28:07;;;;;;;19.45;11.52;;;14.60;89.80;;;;;;5074418;28;20030;-72
2021/09/27 01:30:54;;;;;;;15.40;12.25;;;14.60;90.00;;;;;;5071048;28;20032;-72
2021/09/27 01:33:42;;;;;;;16.58;11.70;;;14.60;90.00;;;;;;5074148;28;20032;-72
2021/09/27 01:36:23;;;;;;;16.00;12.05;;;14.50;89.60;;;;;;5072972;28;20025;-72
2021/09/27 01:39:20;;;;;;;14.20;11.85;;;14.60;89.40;;;;;;5074069;28;20039;-72
2021/09/27 01:41:54;;;;;;;13.80;11.50;;;14.50;89.40;;;;;;5074067;28;20028;-72
2021/09/27 01:44:20;;;;;;;16.75;11.80;;;14.50;89.50;;;;;;5074031;28;20048;-72
2021/09/27 01:46:57;;;;;;;13.02;10.82;;;14.50;89.50;;;;;;5073897;28;20020;-72
2021/09/27 01:49:33;;;;;;;16.40;11.50;;;14.50;89.60;;;;;;5073861;28;20032;-72
2021/09/27 01:52:14;;;;;;;20.88;12.02;;;14.50;89.40;;;;;;5073730;28;20055;-72
2021/09/27 01:54:40;;;;;;;14.35;11.80;;;14.50;89.20;;;;;;5073854;28;20020;-72
2021/09/27 01:57:16;;;;;;;15.63;12.00;;;14.40;89.20;;;;;;5073044;28;20020;-72
2021/09/27 02:00:11;;;;;;;13.90;11.38;;;14.40;89.10;;;;;;5073784;28;20050;-71
2021/09/27 02:02:50;;;;;;;16.85;10.43;;;14.30;89.20;;;;;;5073768;28;20025;-71
2021/09/27 02:05:26;;;;;;;13.40;10.93;;;14.40;89.00;;;;;;5073629;28;20040;-71
2021/09/27 02:07:54;;;;;;;12.50;10.00;;;14.30;88.80;;;;;;5073570;28;20032;-71
2021/09/27 02:10:28;;;;;;;15.07;11.05;;;14.30;88.70;;;;;;5073514;28;20039;-71
2021/09/27 02:13:08;;;;;;;14.25;10.60;;;14.30;88.50;;;;;;5073403;28;20385;-71
2021/09/27 02:15:42;;;;;;;14.75;10.85;;;14.20;88.70;;;;;;5073564;28;20423;-71
2021/09/27 02:18:18;;;;;;;15.05;11.43;;;14.20;88.80;;;;;;5072037;28;20463;-72
2021/09/27 02:20:50;;;;;;;16.55;11.20;;;14.20;88.80;;;;;;5073361;28;20044;-71
2021/09/27 02:23:26;;;;;;;15.18;11.32;;;14.10;89.10;;;;;;5073306;28;20055;-71
2021/09/27 02:25:52;;;;;;;15.35;10.80;;;14.10;89.20;;;;;;5073412;28;20369;-73
2021/09/27 02:28:20;;;;;;;16.02;11.07;;;14.00;89.30;;;;;;5073270;28;20026;-71
2021/09/27 02:30:53;;;;;;;16.52;11.45;;;14.10;89.20;;;;;;5073342;28;20037;-73
2021/09/27 02:33:50;;;;;;;16.50;11.30;;;14.00;89.10;;;;;;5073187;28;20039;-74
2021/09/27 02:36:26;;;;;;;17.13;11.35;;;14.00;89.20;;;;;;5073226;28;20028;-73
2021/09/27 02:39:21;;;;;;;17.13;10.82;;;14.00;89.10;;;;;;5073105;28;20046;-73
2021/09/27 02:41:52;;;;;;;14.95;11.55;;;14.00;89.00;;;;;;5073155;28;20115;-73
2021/09/27 02:44:17;;;;;;;14.02;11.15;;;13.90;89.10;;;;;;5073119;28;20082;-73
2021/09/27 02:46:53;;;;;;;12.77;10.77;;;13.90;89.10;;;;;;5073088;28;20024;-72
2021/09/27 02:49:19;;;;;;;17.80;12.57;;;13.90;89.30;;;;;;5073181;28;20020;-73
2021/09/27 02:51:47;;;;;;;14.15;11.70;;;13.90;89.10;;;;;;5071593;28;20139;-73
2021/09/27 02:54:20;;;;;;;18.83;10.93;;;13.90;89.10;;;;;;5072951;28;20041;-73
2021/09/27 02:57:14;;;;;;;16.52;11.55;;;13.90;89.00;;;;;;5072974;28;20024;-73
2021/09/27 02:59:46;;;;;;;17.05;12.75;;;13.80;88.90;;;;;;5072861;28;20025;-73
2021/09/27 03:02:50;;;;;;;16.70;11.73;;;13.80;89.10;;;;;;5072863;28;20103;-73
2021/09/27 03:05:21;;;;;;;15.43;10.57;;;13.80;89.20;;;;;;5072946;28;20028;-73
2021/09/27 03:07:59;;;;;;;17.58;11.38;;;13.70;89.50;;;;;;5071560;28;20120;-73
2021/09/27 03:11:00;;;;;;;15.40;11.18;;;13.70;89.50;;;;;;5076667;28;20017;-73
2021/09/27 03:13:55;;;;;;;18.45;12.40;;;13.70;89.50;;;;;;5076846;28;20028;-73
2021/09/27 03:16:24;;;;;;;14.25;10.88;;;13.70;89.50;;;;;;5076880;28;20534;-73
2021/09/27 03:19:08;;;;;;;14.60;10.93;;;13.60;89.40;;;;;;5076677;28;20029;-73
2021/09/27 03:21:55;;;;;;;14.18;10.27;;;13.60;89.40;;;;;;5076707;28;20029;-73
2021/09/27 03:24:55;;;;;;;15.48;10.95;;;13.60;89.60;;;;;;5076699;28;20027;-73
2021/09/27 03:27:42;;;;;;;16.42;11.13;;;13.60;89.60;;;;;;5064787;28;20043;-73
2021/09/27 03:30:18;;;;;;;14.73;10.38;;;13.60;89.60;;;;;;5076661;28;20029;-72
2021/09/27 03:33:02;;;;;;;;;;;13.60;89.70;;;;;;5075701;28;20493;-73
2021/09/27 03:35:52;;;;;;;14.75;10.55;;;13.60;89.50;;;;;;5075131;28;19922;-72
2021/09/27 03:38:39;;;;;;;14.55;10.90;;;13.60;89.20;;;;;;5076292;28;20024;-73
2021/09/27 03:41:20;;;;;;;14.52;10.52;;;13.50;89.20;;;;;;5076187;28;20058;-73
2021/09/27 03:44:24;;;;;;;16.88;11.43;;;13.50;89.50;;;;;;5075866;28;20365;-72
2021/09/27 03:47:04;;;;;;;15.75;10.27;;;13.50;89.40;;;;;;5067549;28;20384;-73
2021/09/27 03:50:08;;;;;;;14.95;10.25;;;13.40;89.30;;;;;;5075979;28;20100;-73
2021/09/27 03:52:52;;;;;;;12.50;9.88;;;13.40;89.40;;;;;;5075956;28;20181;-73
2021/09/27 03:55:31;;;;;;;13.68;9.95;;;13.40;89.50;;;;;;5076086;28;20025;-73
2021/09/27 03:58:03;;;;;;;15.43;10.52;;;13.30;89.40;;;;;;5075977;28;20448;-73
2021/09/27 04:00:34;;;;;;;14.70;10.80;;;13.30;89.50;;;;;;5076039;28;20031;-73
2021/09/27 04:03:36;;;;;;;16.63;10.88;;;13.30;89.60;;;;;;5079708;28;20031;-74
2021/09/27 04:06:28;;;;;;;19.02;11.02;;;13.30;89.50;;;;;;5076067;28;20107;-73
2021/09/27 04:08:56;;;;;;;21.25;10.80;;;13.30;89.80;;;;;;5064690;28;20035;-73
2021/09/27 04:11:46;;;;;;;14.60;10.18;;;13.30;89.60;;;;;;5075837;28;20033;-73
2021/09/27 04:14:50;;;;;;;13.48;9.98;;;13.20;89.40;;;;;;5075758;28;20102;-74
2021/09/27 04:17:23;;;;;;;11.30;9.32;;;13.20;89.60;;;;;;5075737;28;20116;-73
2021/09/27 04:20:07;;;;;;;14.52;10.43;;;13.10;89.60;;;;;;5074115;28;20032;-73
2021/09/27 04:22:45;;;;;;;17.25;11.18;;;13.20;89.80;;;;;;5075664;28;20031;-74
2021/09/27 04:25:28;;;;;;;13.40;9.65;;;13.10;89.90;;;;;;5075593;28;20024;-73
2021/09/27 04:28:07;;;;;;;13.00;9.15;;;13.10;90.20;;;;;;5075509;28;20545;-73
2021/09/27 04:30:57;;;;;;;13.15;9.82;;;13.00;90.20;;;;;;5074159;28;20500;-73
2021/09/27 04:33:38;;;;;;;15.25;10.13;;;13.10;90.20;;;;;;5075428;28;20040;-73
2021/09/27 04:36:25;;;;;;;13.45;10.55;;;13.10;90.40;;;;;;5074047;28;20427;-74
2021/09/27 04:38:55;;;;;;;15.60;10.40;;;13.10;90.40;;;;;;5075304;28;20081;-73
2021/09/27 04:41:33;;;;;;;11.95;9.73;;;13.00;90.10;;;;;;5075334;28;20036;-73
2021/09/27 04:44:23;;;;;;;14.23;9.02;;;13.00;90.00;;;;;;5075150;28;20067;-73
2021/09/27 04:46:56;;;;;;;18.45;10.38;;;13.00;89.90;;;;;;5075133;28;20024;-73
2021/09/27 04:50:02;;;;;;;16.83;10.57;;;12.90;89.80;;;;;;5075006;28;20024;-72
2021/09/27 04:53:02;;;;;;;13.68;9.95;;;12.90;90.10;;;;;;5074921;28;20500;-72
2021/09/27 04:55:42;;;;;;;13.38;10.48;;;12.90;90.30;;;;;;5075031;28;20035;-73
2021/09/27 04:58:15;;;;;;;13.55;10.15;;;12.90;91.10;;;;;;5074893;28;20028;-73
2021/09/27 05:01:11;;;;;;;18.25;11.18;;;12.90;90.20;;;;;;5073402;28;20392;-72
2021/09/27 05:03:54;;;;;;;14.90;9.82;;;12.90;90.30;;;;;;5074929;28;20028;-73
2021/09/27 05:06:38;;;;;;;14.13;10.57;;;12.90;90.30;;;;;;5074794;28;20108;-72
2021/09/27 05:09:13;;;;;;;14.65;10.50;;;12.90;90.20;;;;;;5074462;28;20032;-74
2021/09/27 05:12:16;;;;;;;16.15;10.48;;;12.90;89.90;;;;;;5074596;28;20013;-73
2021/09/27 05:15:08;;;;;;;15.23;10.55;;;12.90;90.10;;;;;;5074074;28;20048;-71
2021/09/27 05:18:08;;;;;;;17.27;10.27;;;12.90;90.10;;;;;;5073839;28;20373;-73
2021/09/27 05:20:49;;;;;;;14.52;11.05;;;12.80;90.20;;;;;;5073284;28;20031;-74
2021/09/27 05:23:47;;;;;;;15.30;10.80;;;12.80;90.40;;;;;;5072544;28;20468;-74
2021/09/27 05:26:29;;;;;;;13.45;10.55;;;12.70;90.40;;;;;;5072103;28;20423;-73
2021/09/27 05:29:03;;;;;;;14.48;10.18;;;12.80;90.50;;;;;;5070719;28;20101;-73
2021/09/27 05:31:48;;;;;;;15.18;10.68;;;12.80;90.30;;;;;;5071478;28;20044;-73
2021/09/27 05:34:29;;;;;;;14.07;10.60;;;12.80;90.30;;;;;;5071077;28;20048;-73
2021/09/27 05:37:10;;;;;;;14.95;10.10;;;12.80;90.20;;;;;;5071020;28;20024;-73
2021/09/27 05:39:51;;;;;;;14.15;10.20;;;12.80;89.90;;;;;;5071495;28;20388;-73
2021/09/27 05:42:32;;;;;;;16.92;10.80;;;12.80;89.80;;;;;;5073362;28;20097;-73
2021/09/27 05:45:06;;;;;;;14.57;10.23;;;12.80;89.80;;;;;;5073744;28;20037;-73
2021/09/27 05:47:40;;;;;;;15.30;10.20;;;12.70;90.00;;;;;;5073704;28;20036;-73
2021/09/27 05:50:40;;;;;;;13.73;10.32;;;12.70;90.10;;;;;;5073526;28;20017;-73
2021/09/27 05:53:29;;;;;;;15.98;10.50;;;12.80;90.10;;;;;;5071899;28;20056;-73
2021/09/27 05:56:15;;;;;;;14.73;10.10;;;12.80;90.20;;;;;;5073714;28;20021;-73
2021/09/27 05:58:59;;;;;;;13.43;10.23;;;12.90;89.90;;;;;;5073547;28;20588;-73
2021/09/27 06:01:39;;;;;;;13.88;10.57;;;12.90;89.90;;;;;;5073718;28;20381;-73
2021/09/27 06:04:26;;;;;;;16.55;10.50;;;13.00;89.70;;;;;;5073337;28;20070;-73
2021/09/27 06:07:00;;;;;;;17.25;10.40;;;13.10;89.40;;;;;;5073416;28;20039;-73
2021/09/27 06:09:41;;;;;;;17.98;11.02;;;13.20;88.90;;;;;;5072214;28;20426;-73
2021/09/27 06:12:28;;;;;;;14.27;10.50;;;13.30;88.40;;;;;;5073145;28;20021;-73
2021/09/27 06:14:58;;;;;;;18.35;11.75;;;13.30;88.30;;;;;;5073146;28;20035;-73
2021/09/27 06:17:51;;;;;;;17.23;10.35;;;13.40;88.00;;;;;;5073236;28;20016;-74
2021/09/27 06:20:41;;;;;;;16.85;11.60;;;13.40;87.80;;;;;;5073171;28;20021;-73
2021/09/27 06:23:45;;;;;;;14.90;10.75;;;13.50;87.90;;;;;;5071900;28;20024;-73
2021/09/27 06:26:13;;;;;;;15.13;10.10;;;13.50;87.80;;;;;;5073142;28;20032;-73
2021/09/27 06:28:45;;;;;;;14.18;9.05;;;13.60;87.20;;;;;;5071819;28;20024;-73
2021/09/27 06:31:27;;;;;;;12.57;9.38;;;13.60;87.20;;;;;;5073064;28;20427;-73
2021/09/27 06:34:06;;;;;;;15.02;9.77;;;13.60;87.20;;;;;;5073004;28;20047;-73
2021/09/27 06:36:33;;;;;;;14.55;9.65;;;13.70;87.20;;;;;;5072927;28;20025;-72
2021/09/27 06:39:03;;;;;;;12.95;9.77;;;13.80;86.90;;;;;;5072761;28;20031;-73
2021/09/27 06:41:33;;;;;;;13.10;9.20;;;13.90;86.50;;;;;;5072982;28;20112;-72
2021/09/27 06:43:58;;;;;;;15.55;10.05;;;14.00;86.30;;;;;;5072378;28;20035;-73
2021/09/27 06:46:24;;;;;;;18.33;9.25;;;14.00;86.10;;;;;;5072586;28;20024;-73
2021/09/27 06:48:50;;;;;;;13.48;9.43;;;14.10;85.90;;;;;;5072640;28;20043;-73
2021/09/27 06:51:16;;;;;;;11.05;8.57;;;14.10;85.80;;;;;;5072721;28;20417;-73
2021/09/27 06:53:44;;;;;;;14.77;9.20;;;14.20;85.70;;;;;;5072415;28;20063;-73
2021/09/27 06:56:10;;;;;;;11.18;8.23;;;14.30;85.80;;;;;;5072237;28;20457;-72
2021/09/27 06:58:35;;;;;;;12.15;7.75;;;14.30;85.60;;;;;;5072712;28;20035;-72
2021/09/27 07:01:01;;;;;;;12.30;8.48;;;14.40;85.40;;;;;;5072562;28;20384;-72
2021/09/27 07:03:26;;;;;;;14.25;8.38;;;14.50;85.30;;;;;;5072469;28;20507;-72
2021/09/27 07:05:52;;;;;;;10.88;8.07;;;14.60;85.00;;;;;;5072417;28;20028;-72
2021/09/27 07:08:20;;;;;;;15.88;8.10;;;14.60;84.80;;;;;;5073158;28;20149;-83
2021/09/27 07:10:47;;;;;;;20.17;8.80;;;14.80;86.70;;;;;;5073597;28;20024;-82
2021/09/27 07:13:14;;;;;;;14.20;7.97;;;15.10;85.70;;;;;;5071264;28;20028;-80
2021/09/27 07:15:40;;;;;;;14.55;7.75;;;15.30;85.00;;;;;;5072741;28;20020;-83
2021/09/27 07:18:07;;;;;;;11.95;7.68;;;15.50;84.30;;;;;;5071329;28;20029;-83
2021/09/27 07:20:33;;;;;;;13.10;8.63;;;15.70;82.50;;;;;;5073027;28;20049;-85
2021/09/27 07:22:59;;;;;;;9.27;7.32;;;15.90;82.30;;;;;;5073058;28;20051;-79
2021/09/27 07:25:27;;;;;;;9.40;6.57;;;16.10;81.20;;;;;;5071560;28;20025;-83
2021/09/27 07:27:53;;;;;;;10.75;6.82;;;16.20;81.20;;;;;;5072513;28;20056;-82
2021/09/27 07:30:19;;;;;;;8.85;6.38;;;16.40;80.30;;;;;;5072874;28;20027;-88
2021/09/27 07:32:46;;;;;;;9.88;6.80;;;16.40;79.60;;;;;;5073450;28;20032;-92
2021/09/27 07:35:16;;;;;;;10.00;6.10;;;16.60;80.00;;;;;;5072397;28;20059;-83
2021/09/27 07:37:41;;;;;;;7.55;5.90;;;16.70;79.00;;;;;;5072360;28;20206;-85
2021/09/27 07:40:11;;;;;;;10.88;6.50;;;16.90;79.00;;;;;;5077557;28;20467;-86
2021/09/27 07:42:37;;;;;;;7.93;5.90;;;17.10;79.20;;;;;;5073387;28;20448;-85
2021/09/27 07:45:06;;;;;;;8.60;5.47;;;17.20;78.50;;;;;;5071190;28;20024;-86
2021/09/27 07:47:31;;;;;;;9.20;5.97;;;17.50;77.80;;;;;;5071522;28;20024;-84
2021/09/27 07:49:57;;;;;;;5.60;5.03;;;17.60;77.10;;;;;;5071144;28;20124;-86
2021/09/27 07:52:23;;;;;;;5.88;5.28;;;17.70;77.80;;;;;;5070894;28;20045;-86
2021/09/27 07:54:48;;;;;;;8.10;5.45;;;17.80;76.50;;;;;;5071425;28;20036;-86
2021/09/27 07:57:15;;;;;;;6.55;5.00;;;17.90;76.40;;;;;;5075951;28;20025;-86
2021/09/27 07:59:40;;;;;;;5.25;4.38;;;18.00;75.60;;;;;;5075113;28;20024;-86
2021/09/27 08:02:06;;;;;;;6.05;4.40;;;18.00;75.10;;;;;;5075127;28;20484;-87
2021/09/27 08:04:34;;;;;;;5.40;4.57;;;18.10;74.40;;;;;;5075064;28;20021;-87
2021/09/27 08:06:59;;;;;;;8.95;4.25;;;18.20;74.50;;;;;;5075492;28;20058;-86
2021/09/27 08:09:25;;;;;;;4.53;3.70;;;18.30;73.60;;;;;;5076796;28;20017;-86
2021/09/27 08:11:50;;;;;;;4.75;3.70;;;18.30;73.00;;;;;;5075723;28;20025;-85
2021/09/27 08:14:16;;;;;;;6.80;4.05;;;18.50;73.40;;;;;;5074386;28;20079;-84
2021/09/27 08:16:43;;;;;;;5.20;3.85;;;18.70;72.90;;;;;;5074764;28;20031;-86
2021/09/27 08:19:08;;;;;;;5.50;3.92;;;18.90;72.30;;;;;;5074553;28;20024;-86
2021/09/27 08:21:34;;;;;;;7.40;5.00;;;19.00;71.40;;;;;;5074380;28;20020;-85
2021/09/27 08:24:00;;;;;;;5.22;3.83;;;19.20;70.70;;;;;;5074671;28;20082;-85
2021/09/27 08:26:26;;;;;;;4.63;3.90;;;19.30;69.50;;;;;;5074372;28;20055;-85
2021/09/27 08:28:51;;;;;;;4.15;3.60;;;19.50;69.70;;;;;;5075898;28;20040;-86
2021/09/27 08:31:21;;;;;;;4.55;2.90;;;19.70;68.80;;;;;;5074720;28;20027;-86
2021/09/27 08:33:49;;;;;;;5.10;3.58;;;19.90;67.80;;;;;;5074480;28;20025;-84
2021/09/27 08:36:17;;;;;;;4.70;3.42;;;20.00;67.10;;;;;;5074336;28;20029;-84
2021/09/27 08:38:44;;;;;;;5.00;3.28;;;20.20;65.80;;;;;;5075797;28;20031;-85
2021/09/27 08:41:09;;;;;;;3.75;2.75;;;20.40;65.50;;;;;;5075751;28;20473;-84
2021/09/27 08:44:12;;;;;;;3.55;2.67;;;20.50;65.10;;;;;;5074187;28;20115;-84
2021/09/27 08:46:56;;;;;;;3.38;2.78;;;20.70;64.70;;;;;;5073939;28;20080;-83
2021/09/27 08:49:30;;;;;;;2.75;2.40;;;20.80;63.60;;;;;;5074037;28;20054;-85
2021/09/27 08:51:56;;;;;;;3.50;3.17;;;20.90;63.40;;;;;;5075190;28;20053;-84
2021/09/27 08:54:26;;;;;;;3.45;2.90;;;21.00;62.90;;;;;;5073872;28;20040;-84
2021/09/27 08:56:54;;;;;;;2.60;2.40;;;21.20;62.30;;;;;;5073872;28;20032;-84
2021/09/27 08:59:27;;;;;;;4.68;3.00;;;21.30;61.50;;;;;;5079605;28;20060;-82
2021/09/27 09:02:11;;;;;;;3.17;2.63;;;21.50;61.00;;;;;;5080484;28;20067;-84
2021/09/27 09:04:44;;;;;;;2.40;2.20;;;21.70;60.70;;;;;;5077662;28;20032;-85
2021/09/27 09:07:16;;;;;;;2.85;2.28;;;21.80;60.00;;;;;;5077373;28;20468;-86
2021/09/27 09:09:57;;;;;;;5.65;2.63;;;21.90;59.30;;;;;;5078230;28;20031;-84
2021/09/27 09:12:34;;;;;;;2.85;2.17;;;22.10;58.40;;;;;;5078871;28;20021;-83
2021/09/27 09:15:07;;;;;;;3.58;1.95;;;22.20;58.30;;;;;;5076285;28;20037;-84
2021/09/27 09:17:55;;;;;;;4.45;2.35;;;22.30;58.00;;;;;;5074517;28;20044;-84
2021/09/27 09:20:51;;;;;;;2.97;2.63;;;22.40;57.40;;;;;;5073911;28;20031;-85
2021/09/27 09:23:26;;;;;;;4.25;2.88;;;22.60;57.60;;;;;;5073963;28;20024;-87
2021/09/27 09:25:52;;;;;;;3.10;2.65;;;22.90;56.60;;;;;;5075005;28;20146;-86
2021/09/27 09:28:18;;;;;;;2.90;1.80;;;23.00;55.20;;;;;;5075772;28;20031;-86
2021/09/27 09:31:05;;;;;;;3.20;2.08;;;23.10;54.10;;;;;;5076399;28;20016;-86
2021/09/27 09:33:57;;;;;;;5.22;2.47;;;23.00;52.30;;;;;;5073647;28;20056;-86
2021/09/27 09:36:33;;;;;;;3.67;2.38;;;22.40;53.50;;;;;;5075130;28;20024;-87
2021/09/27 09:39:01;;;;;;;2.58;2.00;;;22.40;55.10;;;;;;5073866;28;20377;-85
2021/09/27 09:41:44;;;;;;;2.47;1.60;;;22.40;53.60;;;;;;5075445;28;20020;-87
2021/09/27 09:44:41;;;;;;;2.92;1.80;;;22.50;51.60;;;;;;5074439;28;20024;-88
2021/09/27 09:47:14;;;;;;;3.30;1.50;;;22.40;50.60;;;;;;5072332;28;20043;-89
2021/09/27 09:49:51;;;;;;;3.00;1.60;;;22.20;49.00;;;;;;5076767;28;20051;-85
2021/09/27 09:52:28;;;;;;;4.15;1.80;;;22.20;50.20;;;;;;5080352;28;20104;-85
2021/09/27 09:54:56;;;;;;;5.55;1.52;;;22.20;51.50;;;;;;5078251;28;20043;-89
2021/09/27 09:57:27;;;;;;;2.42;1.70;;;22.10;51.30;;;;;;5076490;28;20028;-82
2021/09/27 10:00:00;;;;;;;3.97;1.52;;;22.10;48.90;;;;;;5074233;28;20052;-84
2021/09/27 10:02:27;;;;;;;1.63;1.30;;;22.00;50.30;;;;;;5073036;28;20025;-87
2021/09/27 10:05:04;;;;;;;5.63;1.75;;;22.00;49.60;;;;;;5075309;28;20027;-86
2021/09/27 10:07:49;;;;;;;2.92;1.23;;;22.10;47.30;;;;;;5078852;28;20021;-84
2021/09/27 10:10:29;;;;;;;6.88;1.80;;;22.30;46.80;;;;;;5079891;28;20396;-85
2021/09/27 10:12:56;;;;;;;2.13;1.55;;;22.50;47.90;;;;;;5079112;28;20013;-80
2021/09/27 10:15:33;;;;;;;2.85;1.83;;;22.40;47.10;;;;;;5096436;28;20180;-84
2021/09/27 10:18:20;;;;;;;1.55;1.45;;;22.60;48.40;;;;;;5082161;28;20032;-85
2021/09/27 10:21:16;;;;;;;2.00;1.45;;;22.60;47.70;;;;;;5073837;28;20027;-84
2021/09/27 10:23:45;;;;;;;1.60;1.50;;;22.80;46.70;;;;;;5074424;28;20499;-85
2021/09/27 10:26:26;;;;;;;1.48;1.38;;;22.50;45.40;;;;;;5072717;28;20024;-77
2021/09/27 10:28:54;;;;;;;2.72;1.80;;;22.40;45.60;;;;;;5075504;28;20025;-89
2021/09/27 10:31:23;;;;;;;2.08;1.88;;;22.00;47.70;;;;;;5074941;28;20107;-89
2021/09/27 10:33:52;;;;;;;3.42;2.28;;;21.70;49.20;;;;;;5073787;28;20040;-89
2021/09/27 10:36:26;;;;;;;2.47;2.28;;;21.60;51.40;;;;;;5074650;28;20266;-89
2021/09/27 10:38:54;;;;;;;4.07;2.25;;;21.50;50.70;;;;;;5074282;28;20029;-88
2021/09/27 10:41:42;;;;;;;2.63;1.95;;;21.60;51.70;;;;;;5075441;28;20062;-88
2021/09/27 10:44:16;;;;;;;4.38;2.30;;;21.80;50.70;;;;;;5073537;28;20032;-90
2021/09/27 10:46:46;;;;;;;4.72;1.98;;;21.90;49.30;;;;;;5074848;28;20127;-88
2021/09/27 10:49:18;;;;;;;2.97;2.25;;;21.80;49.90;;;;;;5073976;28;20020;-89
2021/09/27 10:51:52;;;;;;;2.55;2.15;;;21.70;51.70;;;;;;5075538;28;20516;-91
2021/09/27 10:54:55;;;;;;;2.53;1.92;;;21.80;51.50;;;;;;5078593;28;20427;-91
2021/09/27 10:57:22;;;;;;;2.38;2.05;;;22.20;49.50;;;;;;5079867;28;20016;-92
2021/09/27 11:00:02;;;;;;;2.40;2.20;;;22.60;48.40;;;;;;5084344;28;20017;-91
2021/09/27 11:02:40;;;;;;;2.05;1.70;;;22.40;49.30;;;;;;5081667;28;20080;-85
2021/09/27 11:05:21;;;;;;;1.92;1.75;;;22.60;47.80;;;;;;5095284;28;20036;-86
2021/09/27 11:07:56;;;;;;;8.45;1.90;;;23.00;46.00;;;;;;5095203;28;20028;-85
2021/09/27 11:10:25;;;;;;;3.92;2.20;;;23.30;45.90;;;;;;5096602;28;20025;-86
2021/09/27 11:12:52;;;;;;;4.47;2.33;;;23.50;45.30;;;;;;5095689;28;20028;-84
2021/09/27 11:15:31;;;;;;;1.80;1.60;;;23.70;43.60;;;;;;5095785;28;20025;-84
2021/09/27 11:18:12;;;;;;;14.25;2.17;;;23.50;45.10;;;;;;5096053;28;20052;-82
2021/09/27 11:20:50;;;;;;;2.30;2.10;;;23.40;45.80;;;;;;5080124;28;20024;-84
2021/09/27 11:23:25;;;;;;;15.07;2.88;;;23.60;44.80;;;;;;5076068;28;20099;-84
2021/09/27 11:26:05;;;;;;;13.43;2.65;;;23.60;45.70;;;;;;5074435;28;20053;-81
2021/09/27 11:29:18;;;;;;;10.75;2.47;;;23.80;44.50;;;;;;5076339;28;20052;-83
2021/09/27 11:31:44;;;;;;;3.83;2.10;;;24.00;44.30;;;;;;5079352;28;20104;-80
2021/09/27 11:34:28;;;;;;;2.70;1.90;;;24.20;43.10;;;;;;5078614;28;20083;-79
2021/09/27 11:37:13;;;;;;;3.00;1.90;;;24.40;43.00;;;;;;5076046;28;20120;-80
2021/09/27 11:39:49;;;;;;;7.47;1.95;;;24.50;42.70;;;;;;5076414;28;20426;-79
2021/09/27 11:42:30;;;;;;;3.97;1.88;;;24.30;42.90;;;;;;5076778;28;20032;-80
2021/09/27 11:45:00;;;;;;;5.55;2.20;;;24.30;43.60;;;;;;5077387;28;20183;-79
2021/09/27 11:47:56;;;;;;;2.80;1.70;;;24.30;44.60;;;;;;5085090;28;20488;-79
2021/09/27 11:50:50;;;;;;;2.47;1.98;;;23.80;44.10;;;;;;5082162;28;20115;-79
2021/09/27 11:53:53;;;;;;;3.08;1.90;;;23.60;45.10;;;;;;5052673;28;20064;-79
2021/09/27 11:56:27;;;;;;;2.70;1.80;;;23.40;45.40;;;;;;5054283;28;20040;-78
2021/09/27 11:58:56;;;;;;;1.65;1.55;;;23.00;45.20;;;;;;5056120;28;20116;-76
2021/09/27 12:01:37;;;;;;;2.40;1.95;;;22.60;46.10;;;;;;5055995;28;20481;-76
2021/09/27 12:04:08;;;;;;;1.92;1.70;;;22.70;46.40;;;;;;5054298;28;20033;-76
2021/09/27 12:06:45;;;;;;;2.80;1.88;;;22.80;46.60;;;;;;5055894;28;20024;-77
2021/09/27 12:09:15;;;;;;;2.30;2.10;;;22.70;48.10;;;;;;5055796;28;20059;-74
2021/09/27 12:11:51;;;;;;;2.40;2.20;;;22.90;48.90;;;;;;5055804;28;20098;-76
2021/09/27 12:14:24;;;;;;;2.20;2.00;;;23.10;48.50;;;;;;5055646;28;20036;-76
2021/09/27 12:16:53;;;;;;;2.88;2.20;;;23.20;48.30;;;;;;5055711;28;20028;-76
2021/09/27 12:19:22;;;;;;;2.22;2.03;;;23.10;47.90;;;;;;5055382;28;20025;-76
2021/09/27 12:21:57;;;;;;;3.78;1.95;;;23.00;47.70;;;;;;5055391;28;20017;-76
2021/09/27 12:24:31;;;;;;;2.25;2.00;;;23.00;48.20;;;;;;5055424;28;20031;-76
2021/09/27 12:27:09;;;;;;;2.42;1.92;;;22.90;48.60;;;;;;5055249;28;20515;-76
2021/09/27 12:29:50;;;;;;;3.80;2.25;;;22.70;49.50;;;;;;5055164;28;20036;-76
2021/09/27 12:32:15;;;;;;;3.00;2.40;;;22.80;48.40;;;;;;5055213;28;20025;-75
2021/09/27 12:34:47;;;;;;;2.50;2.30;;;22.70;49.40;;;;;;5055334;28;20043;-77
2021/09/27 12:37:17;;;;;;;4.93;2.50;;;22.50;49.40;;;;;;5053871;28;20021;-76
2021/09/27 12:39:44;;;;;;;2.67;2.10;;;22.50;49.80;;;;;;5055213;28;20025;-74
2021/09/27 12:42:18;;;;;;;4.32;2.25;;;22.50;49.30;;;;;;5053174;28;20021;-75
2021/09/27 12:44:49;;;;;;;2.85;2.17;;;22.30;49.80;;;;;;5054959;28;20028;-75
2021/09/27 12:47:15;;;;;;;2.60;2.40;;;22.10;50.90;;;;;;5054964;28;20040;-73
2021/09/27 12:49:54;;;;;;;11.20;3.40;;;21.90;52.30;;;;;;5054723;28;20021;-75
2021/09/27 12:52:46;;;;;;;4.68;3.47;;;22.00;52.40;;;;;;5054700;28;20044;-75
2021/09/27 12:55:15;;;;;;;5.70;2.83;;;22.20;51.90;;;;;;5054697;28;20059;-76
2021/09/27 12:57:44;;;;;;;2.92;2.38;;;22.20;52.80;;;;;;5054673;28;20058;-75
2021/09/27 13:00:31;;;;;;;2.65;2.13;;;22.00;54.10;;;;;;5054655;28;20083;-76
2021/09/27 13:03:03;;;;;;;2.70;2.20;;;21.90;54.90;;;;;;5054470;28;20036;-75
2021/09/27 13:05:48;;;;;;;3.72;2.28;;;21.80;55.20;;;;;;5054613;28;20098;-75
2021/09/27 13:08:24;;;;;;;7.10;2.30;;;21.80;55.90;;;;;;5054227;28;20032;-77
2021/09/27 13:10:54;;;;;;;6.53;2.70;;;21.70;56.10;;;;;;5054508;28;20021;-76
2021/09/27 13:13:32;;;;;;;3.40;2.45;;;21.60;56.70;;;;;;5054614;28;20032;-79
2021/09/27 13:16:11;;;;;;;8.00;2.90;;;21.50;57.10;;;;;;5054474;28;20088;-76
2021/09/27 13:18:41;;;;;;;5.65;2.70;;;21.40;57.00;;;;;;5054288;28;20021;-78
2021/09/27 13:21:15;;;;;;;3.60;2.58;;;21.40;57.60;;;;;;5054205;28;20096;-78
2021/09/27 13:23:55;;;;;;;4.38;2.42;;;21.40;58.00;;;;;;5052952;28;20393;-78
2021/09/27 13:26:23;;;;;;;2.53;2.33;;;21.30;56.60;;;;;;5054209;28;20381;-78